Time;durP1;ratioP1;P1;durP2;ratioP2;P2;SDS_P1;SDS_P2;PMS_P1;PMS_P2;Temp;Humidity;BMP_temperature;BMP_pressure;BME280_temperature;BME280_humidity;BME280_pressure;Samples;Min_cycle;Max_cycle;Signal;HPM_P1;HPM_P2
2021/06/26 00:00:31;;;;;;;8.40;7.60;;;;;;;19.93;56.20;96965.84;5046898;28;20889;-69
2021/06/26 00:02:57;;;;;;;8.50;7.63;;;;;;;19.70;56.91;96961.13;5050193;28;20552;-70
2021/06/26 00:05:22;;;;;;;9.67;7.97;;;;;;;19.82;56.55;96958.53;5049354;28;20179;-68
2021/06/26 00:07:48;;;;;;;7.90;7.20;;;;;;;19.91;56.37;96951.97;5051399;28;20205;-69
2021/06/26 00:10:14;;;;;;;8.17;7.00;;;;;;;19.98;55.88;96957.22;5051636;28;20248;-69
2021/06/26 00:12:39;;;;;;;7.70;7.00;;;;;;;20.04;55.29;96961.66;5051744;28;20225;-69
2021/06/26 00:15:07;;;;;;;9.10;6.00;;;;;;;20.07;54.99;96964.69;5050068;28;20665;-68
2021/06/26 00:17:33;;;;;;;9.00;7.00;;;;;;;19.87;54.48;96969.38;5051775;28;20274;-68
2021/06/26 00:19:59;;;;;;;9.93;6.60;;;;;;;19.93;54.91;96958.69;5050157;28;20509;-69
2021/06/26 00:22:24;;;;;;;7.07;6.40;;;;;;;19.86;55.35;96962.41;5046830;28;20214;-70
2021/06/26 00:24:50;;;;;;;8.20;7.40;;;;;;;19.86;55.46;96960.59;5050874;28;20206;-69
2021/06/26 00:27:15;;;;;;;8.97;8.07;;;;;;;19.80;55.60;96954.25;5049536;28;20701;-68
2021/06/26 00:29:41;;;;;;;9.57;7.30;;;;;;;19.65;56.34;96953.78;5051631;28;20233;-68
2021/06/26 00:32:06;;;;;;;17.03;7.60;;;;;;;19.70;55.80;96948.63;5047486;28;20199;-68
2021/06/26 00:34:32;;;;;;;8.70;7.80;;;;;;;19.79;55.59;96943.84;5051186;28;20175;-69
2021/06/26 00:36:58;;;;;;;7.43;6.73;;;;;;;19.90;55.57;96939.72;5051410;28;20209;-67
2021/06/26 00:39:23;;;;;;;7.30;6.60;;;;;;;19.97;55.57;96935.13;5050414;28;20194;-69
2021/06/26 00:41:49;;;;;;;7.97;7.27;;;;;;;20.04;55.73;96938.53;5050892;28;20211;-67
2021/06/26 00:44:16;;;;;;;13.23;7.37;;;;;;;20.11;55.42;96938.47;5049894;28;20199;-70
2021/06/26 00:46:41;;;;;;;7.70;7.00;;;;;;;20.13;55.40;96928.41;5045619;28;20481;-69
2021/06/26 00:49:07;;;;;;;7.63;6.60;;;;;;;20.15;55.39;96930.88;5048727;28;20183;-69
2021/06/26 00:51:33;;;;;;;8.20;7.10;;;;;;;20.17;55.30;96932.28;5052262;28;20740;-69
2021/06/26 00:53:59;;;;;;;6.80;6.20;;;;;;;20.18;55.46;96919.78;5052199;28;20175;-67
2021/06/26 00:56:25;;;;;;;9.27;8.43;;;;;;;20.19;55.91;96921.41;5037705;28;20185;-68
2021/06/26 00:58:52;;;;;;;9.00;7.03;;;;;;;20.21;55.99;96922.00;5052342;28;20182;-68
2021/06/26 01:01:17;;;;;;;6.87;6.17;;;;;;;20.23;56.20;96918.06;5046373;28;20429;-67
2021/06/26 01:03:45;;;;;;;8.33;7.53;;;;;;;20.23;56.14;96914.63;5051018;28;20960;-68
2021/06/26 01:06:11;;;;;;;8.50;6.63;;;;;;;20.23;56.54;96912.75;5051080;28;20186;-69
2021/06/26 01:08:37;;;;;;;7.93;7.13;;;;;;;20.23;57.05;96918.06;5051809;28;20427;-68
2021/06/26 01:11:03;;;;;;;7.90;7.20;;;;;;;20.25;57.50;96920.53;5045057;28;20457;-68
2021/06/26 01:13:29;;;;;;;8.33;7.37;;;;;;;20.18;57.67;96925.94;5050174;28;20414;-68
2021/06/26 01:15:55;;;;;;;8.97;8.07;;;;;;;19.94;58.88;96917.78;5053544;28;20214;-68
2021/06/26 01:18:21;;;;;;;9.53;7.80;;;;;;;19.85;59.08;96913.72;5050236;28;20469;-70
2021/06/26 01:20:46;;;;;;;10.37;8.50;;;;;;;19.86;58.59;96917.22;5048395;28;20212;-69
2021/06/26 01:23:13;;;;;;;10.10;9.07;;;;;;;19.77;58.80;96919.31;5052900;28;20222;-68
2021/06/26 01:25:39;;;;;;;9.30;8.40;;;;;;;19.58;59.33;96921.94;5053616;28;20210;-70
2021/06/26 01:28:05;;;;;;;10.67;8.90;;;;;;;19.54;58.89;96917.25;5054595;28;20457;-69
2021/06/26 01:30:35;;;;;;;9.17;8.27;;;;;;;19.36;59.50;96918.84;5049435;28;20228;-68
2021/06/26 01:33:03;;;;;;;12.27;9.23;;;;;;;19.45;59.18;96909.56;5044460;28;20465;-69
2021/06/26 01:35:29;;;;;;;11.43;9.10;;;;;;;19.23;59.84;96924.25;5054159;28;20432;-68
2021/06/26 01:37:55;;;;;;;9.33;8.43;;;;;;;19.54;58.89;96925.22;5052991;28;20426;-69
2021/06/26 01:40:24;;;;;;;11.93;8.77;;;;;;;19.61;58.68;96918.03;5054159;28;20478;-69
2021/06/26 01:42:50;;;;;;;9.80;8.90;;;;;;;19.64;58.68;96918.41;5054406;28;20541;-69
2021/06/26 01:45:17;;;;;;;11.20;8.90;;;;;;;19.64;58.51;96917.59;5053881;28;20907;-70
2021/06/26 01:47:49;;;;;;;10.60;9.10;;;;;;;19.71;58.41;96915.69;5054434;28;20425;-68
2021/06/26 01:50:16;;;;;;;13.30;8.70;;;;;;;19.60;58.83;96914.56;5054439;28;20968;-68
2021/06/26 01:52:45;;;;;;;13.17;10.00;;;;;;;19.49;59.10;96916.09;5054254;28;20864;-69
2021/06/26 01:55:12;;;;;;;10.37;9.27;;;;;;;19.62;59.10;96911.69;5052675;28;20428;-68
2021/06/26 01:57:39;;;;;;;10.70;8.73;;;;;;;19.72;58.66;96906.69;5053604;28;20498;-68
2021/06/26 02:00:05;;;;;;;10.27;9.27;;;;;;;19.73;58.63;96902.19;5050158;28;20429;-69
2021/06/26 02:02:31;;;;;;;9.63;8.73;;;;;;;19.74;58.51;96901.97;5053967;28;20461;-68
2021/06/26 02:04:57;;;;;;;11.97;9.80;;;;;;;19.78;58.17;96907.66;5054085;28;20428;-69
2021/06/26 02:07:22;;;;;;;10.60;9.27;;;;;;;19.85;58.14;96900.44;5053976;28;20249;-67
2021/06/26 02:09:48;;;;;;;10.83;9.70;;;;;;;19.84;57.90;96906.81;5054116;28;20204;-70
2021/06/26 02:12:13;;;;;;;10.33;9.33;;;;;;;19.77;57.59;96906.88;5052922;28;20253;-70
2021/06/26 02:14:39;;;;;;;10.17;9.10;;;;;;;19.74;58.16;96904.63;5053020;28;20581;-68
2021/06/26 02:17:04;;;;;;;9.83;8.70;;;;;;;19.68;58.59;96902.84;5052438;28;20191;-68
2021/06/26 02:19:30;;;;;;;10.90;8.80;;;;;;;19.65;58.91;96908.59;5054055;28;20711;-68
2021/06/26 02:21:58;;;;;;;14.03;9.33;;;;;;;19.78;58.70;96907.66;5050033;28;20218;-69
2021/06/26 02:24:24;;;;;;;13.77;10.10;;;;;;;19.78;58.07;96908.47;5053491;28;20920;-68
2021/06/26 02:26:50;;;;;;;11.50;9.73;;;;;;;19.83;57.55;96907.84;5051182;28;20190;-68
2021/06/26 02:29:15;;;;;;;11.13;9.20;;;;;;;19.85;58.16;96903.09;5052792;28;20513;-69
2021/06/26 02:31:41;;;;;;;10.13;9.13;;;;;;;19.91;58.09;96909.44;5049297;28;20635;-69
2021/06/26 02:34:09;;;;;;;9.90;8.90;;;;;;;19.89;58.26;96917.59;5026709;28;20179;-69
2021/06/26 02:36:35;;;;;;;10.33;8.07;;;;;;;19.90;58.50;96919.25;5053172;28;20183;-69
2021/06/26 02:39:01;;;;;;;10.87;8.70;;;;;;;19.96;58.48;96917.53;5053192;28;20793;-68
2021/06/26 02:41:26;;;;;;;10.07;9.03;;;;;;;19.98;58.68;96915.47;5051970;28;20198;-68
2021/06/26 02:43:52;;;;;;;11.30;8.73;;;;;;;19.93;59.73;96915.31;5052772;28;20221;-68
2021/06/26 02:46:17;;;;;;;9.53;8.40;;;;;;;19.89;59.75;96909.63;5052597;28;20186;-70
2021/06/26 02:48:43;;;;;;;10.50;8.60;;;;;;;19.71;60.73;96912.25;5045138;28;20247;-69
2021/06/26 02:51:09;;;;;;;10.80;9.43;;;;;;;19.82;60.34;96908.88;5053108;28;20194;-68
2021/06/26 02:53:34;;;;;;;15.50;10.10;;;;;;;19.81;60.61;96909.91;5052546;28;20194;-69
2021/06/26 02:56:00;;;;;;;13.10;10.27;;;;;;;19.79;60.66;96910.09;5044361;28;20215;-69
2021/06/26 02:58:25;;;;;;;14.07;10.97;;;;;;;19.80;60.53;96903.75;5037101;28;20317;-69
2021/06/26 03:00:51;;;;;;;15.00;11.77;;;;;;;19.78;60.50;96911.13;5042655;28;20310;-70
2021/06/26 03:03:17;;;;;;;10.93;9.80;;;;;;;19.77;60.39;96903.38;5043600;28;20211;-69
2021/06/26 03:05:42;;;;;;;12.17;10.97;;;;;;;19.80;60.54;96902.94;5038699;28;20176;-68
2021/06/26 03:08:08;;;;;;;12.03;10.77;;;;;;;19.73;60.60;96903.00;5050033;28;20183;-68
2021/06/26 03:10:34;;;;;;;17.20;10.83;;;;;;;19.73;60.91;96902.19;5047567;28;20417;-68
2021/06/26 03:13:00;;;;;;;14.30;11.40;;;;;;;19.70;60.92;96900.78;5044719;28;20194;-68
2021/06/26 03:15:25;;;;;;;12.73;10.90;;;;;;;19.69;60.95;96899.16;5043338;28;20651;-68
2021/06/26 03:17:51;;;;;;;16.37;11.40;;;;;;;19.71;60.96;96891.78;5051006;28;20197;-70
2021/06/26 03:20:16;;;;;;;12.10;10.47;;;;;;;19.71;60.86;96894.44;5054061;28;20257;-68
2021/06/26 03:22:42;;;;;;;11.67;10.47;;;;;;;19.69;60.88;96891.16;5050303;28;20252;-68
2021/06/26 03:25:09;;;;;;;11.63;10.40;;;;;;;19.64;61.13;96891.03;5053455;28;20616;-69
2021/06/26 03:27:38;;;;;;;14.33;10.63;;;;;;;19.61;61.43;96891.47;5053202;28;20179;-68
2021/06/26 03:30:04;;;;;;;14.20;10.80;;;;;;;19.54;61.49;96888.84;5049857;28;20433;-69
2021/06/26 03:32:30;;;;;;;11.30;10.20;;;;;;;19.49;61.64;96886.84;5052919;28;20473;-68
2021/06/26 03:34:56;;;;;;;11.30;10.20;;;;;;;19.42;62.03;96896.72;5049049;28;21331;-67
2021/06/26 03:37:21;;;;;;;11.23;10.13;;;;;;;19.37;62.21;96901.03;5043500;28;20177;-67
2021/06/26 03:39:47;;;;;;;16.30;12.17;;;;;;;19.25;62.42;96900.94;5043691;28;20622;-68
2021/06/26 03:42:12;;;;;;;10.93;9.67;;;;;;;19.25;62.54;96896.44;5045371;28;20203;-69
2021/06/26 03:44:38;;;;;;;12.17;10.83;;;;;;;19.22;62.80;96896.84;5053093;28;20210;-67
2021/06/26 03:47:04;;;;;;;21.17;12.27;;;;;;;19.09;63.28;96900.41;5052877;28;20562;-68
2021/06/26 03:49:39;;;;;;;15.20;12.27;;;;;;;19.13;63.15;96898.16;5052853;28;20252;-68
2021/06/26 03:52:06;;;;;;;18.00;11.90;;;;;;;19.12;63.28;96892.03;5025698;28;20315;-68
2021/06/26 03:54:31;;;;;;;12.20;10.90;;;;;;;19.13;63.63;96893.66;5053201;28;20540;-69
2021/06/26 03:56:57;;;;;;;12.60;11.30;;;;;;;19.02;64.16;96886.38;5052418;28;20429;-68
2021/06/26 03:59:23;;;;;;;16.10;11.70;;;;;;;19.08;64.09;96898.00;5053317;28;20668;-68
2021/06/26 04:01:48;;;;;;;13.30;10.60;;;;;;;18.80;64.97;96893.81;5052616;28;20221;-68
2021/06/26 04:04:14;;;;;;;10.73;9.63;;;;;;;18.60;65.52;96905.34;5050136;28;20187;-68
2021/06/26 04:06:39;;;;;;;11.07;9.97;;;;;;;18.62;65.54;96908.59;5051519;28;20266;-69
2021/06/26 04:09:05;;;;;;;10.60;9.60;;;;;;;18.66;65.46;96914.28;5051849;28;20817;-68
2021/06/26 04:11:31;;;;;;;10.77;9.67;;;;;;;18.84;65.33;96911.78;5050494;28;20225;-69
2021/06/26 04:13:56;;;;;;;9.97;8.90;;;;;;;19.03;64.58;96912.72;5050452;28;20202;-68
2021/06/26 04:16:22;;;;;;;11.50;10.10;;;;;;;19.13;64.09;96912.25;5050054;28;20192;-69
2021/06/26 04:18:47;;;;;;;16.03;11.30;;;;;;;19.29;63.63;96913.56;5051662;28;20189;-68
2021/06/26 04:21:13;;;;;;;13.27;11.30;;;;;;;19.40;63.36;96914.72;5043635;28;20230;-69
2021/06/26 04:23:39;;;;;;;13.10;10.77;;;;;;;19.55;62.81;96916.22;5049992;28;20530;-68
2021/06/26 04:26:04;;;;;;;13.77;11.50;;;;;;;19.68;62.75;96910.00;5051186;28;20221;-69
2021/06/26 04:28:30;;;;;;;15.30;11.80;;;;;;;19.78;62.48;96912.97;5050721;28;20190;-68
2021/06/26 04:30:55;;;;;;;17.60;10.60;;;;;;;19.83;62.02;96910.50;5050480;28;20263;-67
2021/06/26 04:33:21;;;;;;;15.40;9.37;;;;;;;19.63;62.08;96915.97;5051037;28;20194;-68
2021/06/26 04:35:47;;;;;;;11.10;8.97;;;;;;;19.64;62.16;96910.44;5051249;28;20670;-68
2021/06/26 04:38:12;;;;;;;14.93;9.57;;;;;;;19.66;61.97;96907.53;5050788;28;20237;-68
2021/06/26 04:40:38;;;;;;;9.53;8.23;;;;;;;19.74;62.24;96904.63;5051056;28;20254;-67
2021/06/26 04:43:04;;;;;;;10.27;9.27;;;;;;;19.85;61.92;96897.75;5050887;28;20223;-68
2021/06/26 04:45:30;;;;;;;13.20;9.60;;;;;;;19.90;61.78;96897.16;5050323;28;20708;-68
2021/06/26 04:48:00;;;;;;;10.00;9.10;;;;;;;19.97;61.79;96902.41;5050832;28;20433;-69
2021/06/26 04:50:26;;;;;;;11.63;10.37;;;;;;;20.01;61.33;96909.75;5031251;28;20833;-68
2021/06/26 04:52:52;;;;;;;13.00;11.00;;;;;;;20.03;61.34;96902.34;5046808;28;20448;-68
2021/06/26 04:55:17;;;;;;;15.00;12.30;;;;;;;20.11;61.67;96906.53;5051841;28;20191;-68
2021/06/26 04:57:44;;;;;;;17.53;14.13;;;;;;;20.22;61.97;96913.00;5052631;28;20662;-69
2021/06/26 05:00:10;;;;;;;17.43;13.93;;;;;;;20.31;62.17;96909.00;5051253;28;20191;-67
2021/06/26 05:02:36;;;;;;;20.37;14.23;;;;;;;20.36;62.02;96909.16;5050921;28;20483;-68
2021/06/26 05:05:02;;;;;;;16.00;14.17;;;;;;;20.42;61.83;96904.78;5049202;28;20834;-68
2021/06/26 05:07:28;;;;;;;19.37;14.43;;;;;;;20.41;62.05;96903.97;5050971;28;20437;-68
2021/06/26 05:09:53;;;;;;;21.20;14.73;;;;;;;20.45;62.77;96898.19;5051101;28;20433;-68
2021/06/26 05:12:19;;;;;;;23.43;17.13;;;;;;;20.50;62.42;96901.81;5052241;28;20207;-68
2021/06/26 05:14:45;;;;;;;19.50;16.50;;;;;;;20.51;62.77;96902.66;5051310;28;20241;-67
2021/06/26 05:17:10;;;;;;;19.27;16.07;;;;;;;20.65;62.46;96900.63;5050411;28;20249;-69
2021/06/26 05:19:36;;;;;;;19.50;16.43;;;;;;;20.77;62.24;96903.38;5051251;28;20175;-68
2021/06/26 05:22:01;;;;;;;19.13;16.83;;;;;;;20.84;62.02;96901.44;5042203;28;20793;-68
2021/06/26 05:24:27;;;;;;;22.00;16.43;;;;;;;20.84;61.74;96906.75;5048471;28;20266;-68
2021/06/26 05:26:52;;;;;;;26.30;16.10;;;;;;;21.07;61.42;96918.53;5051069;28;20191;-69
2021/06/26 05:29:18;;;;;;;24.80;17.00;;;;;;;21.20;61.31;96909.53;5050324;28;20680;-69
2021/06/26 05:31:44;;;;;;;17.80;15.10;;;;;;;21.48;60.55;96922.22;5044750;28;20269;-68
2021/06/26 05:34:09;;;;;;;22.03;16.47;;;;;;;21.62;59.54;96923.69;5048825;28;20191;-69
2021/06/26 05:36:35;;;;;;;21.87;16.30;;;;;;;21.71;59.00;96915.31;5049355;28;20189;-69
2021/06/26 05:39:01;;;;;;;23.03;16.50;;;;;;;21.70;59.45;96919.03;5050328;28;20242;-68
2021/06/26 05:41:27;;;;;;;19.30;15.17;;;;;;;21.86;58.96;96913.03;5050286;28;20199;-67
2021/06/26 05:43:53;;;;;;;20.60;15.63;;;;;;;22.08;58.47;96913.25;5046936;28;21033;-69
2021/06/26 05:46:18;;;;;;;20.50;16.13;;;;;;;22.25;57.58;96909.84;5050417;28;20429;-68
2021/06/26 05:48:44;;;;;;;21.57;17.10;;;;;;;21.68;59.36;96907.78;5050682;28;20294;-68
2021/06/26 05:51:14;;;;;;;21.13;15.97;;;;;;;21.60;60.06;96917.75;5036403;28;20198;-68
2021/06/26 05:53:39;;;;;;;18.63;16.10;;;;;;;21.56;60.02;96916.56;5050699;28;20581;-68
2021/06/26 05:56:05;;;;;;;20.37;18.03;;;;;;;21.78;58.93;96910.72;5050906;28;20410;-67
2021/06/26 05:58:33;;;;;;;21.40;18.57;;;;;;;21.43;59.71;96919.44;5050969;28;20179;-67
2021/06/26 06:00:59;;;;;;;22.30;17.53;;;;;;;21.63;58.75;96919.13;5039148;28;20232;-65
2021/06/26 06:03:25;;;;;;;19.73;17.70;;;;;;;21.75;58.54;96919.16;5037723;28;20476;-68
2021/06/26 06:05:51;;;;;;;19.00;16.10;;;;;;;21.98;58.18;96920.22;5054354;28;20418;-68
2021/06/26 06:08:19;;;;;;;19.13;17.10;;;;;;;22.04;57.91;96919.28;5054268;28;20516;-68
2021/06/26 06:10:45;;;;;;;22.03;17.40;;;;;;;21.92;58.46;96925.44;5054123;28;20432;-69
2021/06/26 06:13:16;;;;;;;21.43;17.13;;;;;;;22.19;57.97;96927.59;5053906;28;20433;-69
2021/06/26 06:15:43;;;;;;;19.30;16.70;;;;;;;22.39;57.31;96911.22;5053905;28;20179;-69
2021/06/26 06:18:10;;;;;;;22.47;17.73;;;;;;;22.58;57.29;96916.44;5053199;28;20955;-69
2021/06/26 06:20:36;;;;;;;23.40;17.53;;;;;;;22.28;57.90;96919.25;5052961;28;20438;-69
2021/06/26 06:23:02;;;;;;;20.63;16.27;;;;;;;22.32;57.45;96921.22;5050779;28;20465;-68
2021/06/26 06:25:28;;;;;;;18.93;15.73;;;;;;;22.37;57.03;96928.53;5053775;28;20774;-69
2021/06/26 06:27:53;;;;;;;18.80;15.10;;;;;;;22.30;57.41;96933.19;5054082;28;20422;-69
2021/06/26 06:30:19;;;;;;;24.43;16.43;;;;;;;22.61;56.66;96926.66;5049831;28;20672;-69
2021/06/26 06:32:45;;;;;;;17.27;15.40;;;;;;;22.73;56.54;96931.16;5043250;28;20210;-69
2021/06/26 06:35:11;;;;;;;15.53;13.90;;;;;;;22.81;55.83;96928.88;5051943;28;20418;-69
2021/06/26 06:37:37;;;;;;;18.50;14.43;;;;;;;22.90;55.41;96932.00;5051769;28;20189;-69
2021/06/26 06:40:08;;;;;;;24.13;16.53;;;;;;;22.74;55.68;96928.22;5053101;28;20199;-68
2021/06/26 06:42:34;;;;;;;27.40;19.33;;;;;;;22.81;56.04;96925.41;5053265;28;20520;-68
2021/06/26 06:45:00;;;;;;;34.93;21.00;;;;;;;23.17;54.98;96921.56;5053116;28;20912;-68
2021/06/26 06:47:26;;;;;;;24.23;17.10;;;;;;;22.84;55.62;96923.06;5053560;28;20521;-69
2021/06/26 06:49:51;;;;;;;24.03;17.03;;;;;;;23.05;55.12;96928.81;5054016;28;20190;-69
2021/06/26 06:52:17;;;;;;;19.13;16.77;;;;;;;23.19;54.52;96923.97;5053057;28;20202;-68
2021/06/26 06:54:42;;;;;;;21.73;17.20;;;;;;;22.91;55.28;96922.94;5052628;28;20207;-68
2021/06/26 06:57:08;;;;;;;17.87;16.03;;;;;;;23.01;55.45;96923.13;5052343;28;20604;-68
2021/06/26 06:59:34;;;;;;;20.80;18.60;;;;;;;23.07;55.02;96928.56;5053035;28;20179;-68
2021/06/26 07:01:59;;;;;;;19.80;16.40;;;;;;;23.33;54.25;96924.50;5038191;28;20288;-69
2021/06/26 07:04:25;;;;;;;20.40;15.83;;;;;;;23.38;54.54;96924.59;5053173;28;20195;-68
2021/06/26 07:06:52;;;;;;;18.20;15.40;;;;;;;23.53;54.62;96926.72;5053239;28;20220;-68
2021/06/26 07:09:18;;;;;;;21.00;16.10;;;;;;;23.67;53.31;96924.53;5052831;28;20977;-68
2021/06/26 07:11:43;;;;;;;21.43;15.80;;;;;;;23.34;54.40;96928.00;5051860;28;20445;-68
2021/06/26 07:14:09;;;;;;;16.57;14.87;;;;;;;23.41;54.31;96925.97;5050560;28;20190;-69
2021/06/26 07:16:34;;;;;;;19.63;16.30;;;;;;;23.10;55.80;96925.44;5053110;28;20183;-68
2021/06/26 07:19:00;;;;;;;20.37;15.33;;;;;;;24.19;53.07;96920.75;5052658;28;20183;-68
2021/06/26 07:21:26;;;;;;;16.43;14.77;;;;;;;23.55;53.12;96929.16;5034100;28;20175;-69
2021/06/26 07:23:51;;;;;;;21.80;15.23;;;;;;;22.85;56.00;96923.91;5052689;28;20213;-68
2021/06/26 07:26:17;;;;;;;18.27;14.17;;;;;;;24.17;51.32;96919.41;5052774;28;20601;-67
2021/06/26 07:28:42;;;;;;;16.80;13.83;;;;;;;23.82;51.14;96925.84;5051624;28;20183;-66
2021/06/26 07:31:08;;;;;;;17.23;15.50;;;;;;;23.73;52.44;96928.91;5037155;28;20238;-67
2021/06/26 07:33:34;;;;;;;17.53;14.43;;;;;;;23.35;53.58;96926.97;5051094;28;20218;-68
2021/06/26 07:35:59;;;;;;;20.43;16.90;;;;;;;23.62;53.48;96927.94;5052632;28;20270;-67
2021/06/26 07:38:25;;;;;;;15.43;13.83;;;;;;;24.50;50.25;96923.03;5046190;28;20313;-68
2021/06/26 07:40:51;;;;;;;14.90;13.00;;;;;;;24.29;50.58;96919.28;5052153;28;20712;-68
2021/06/26 07:43:17;;;;;;;37.17;23.00;;;;;;;24.52;50.38;96915.56;5051789;28;20225;-68
2021/06/26 07:45:42;;;;;;;17.07;14.97;;;;;;;24.84;49.41;96920.22;5052769;28;20186;-68
2021/06/26 07:48:08;;;;;;;15.30;13.77;;;;;;;24.85;49.09;96921.84;5050897;28;20186;-68
2021/06/26 07:50:33;;;;;;;16.13;13.90;;;;;;;24.67;49.11;96914.91;5052295;28;20187;-68
2021/06/26 07:52:59;;;;;;;22.47;15.27;;;;;;;24.23;50.83;96915.72;5036062;28;20257;-68
2021/06/26 07:55:24;;;;;;;24.93;19.13;;;;;;;24.26;51.19;96920.59;5050712;28;20590;-68
2021/06/26 07:57:50;;;;;;;16.30;14.47;;;;;;;24.29;50.12;96912.06;5052592;28;20198;-69
2021/06/26 08:00:16;;;;;;;14.40;12.90;;;;;;;24.17;50.44;96911.38;5049739;28;20668;-70
2021/06/26 08:02:42;;;;;;;14.87;12.40;;;;;;;23.34;52.66;96903.94;5040742;28;20210;-68
2021/06/26 08:05:08;;;;;;;18.20;16.03;;;;;;;23.96;51.40;96904.91;5050390;28;20433;-68
2021/06/26 08:07:33;;;;;;;18.77;12.70;;;;;;;24.80;48.99;96903.06;5051450;28;20601;-69
2021/06/26 08:09:59;;;;;;;13.80;12.40;;;;;;;24.09;50.08;96904.56;5051704;28;20437;-69
2021/06/26 08:12:25;;;;;;;15.33;13.73;;;;;;;24.43;49.57;96907.16;5051710;28;20241;-69
2021/06/26 08:14:51;;;;;;;18.83;13.90;;;;;;;24.62;48.31;96894.25;5051658;28;20636;-68
2021/06/26 08:17:16;;;;;;;12.80;11.50;;;;;;;25.12;47.10;96903.13;5050465;28;20199;-67
2021/06/26 08:19:42;;;;;;;15.30;11.67;;;;;;;25.37;46.47;96896.38;5051309;28;20213;-66
2021/06/26 08:22:08;;;;;;;14.33;12.87;;;;;;;24.31;48.37;96903.78;5048659;28;20202;-68
2021/06/26 08:24:34;;;;;;;13.37;11.97;;;;;;;25.37;46.23;96901.72;5048612;28;20711;-67
2021/06/26 08:27:01;;;;;;;11.30;10.10;;;;;;;25.60;45.46;96895.22;5033308;28;20278;-68
2021/06/26 08:29:27;;;;;;;11.03;10.03;;;;;;;25.97;44.39;96900.81;5051366;28;20515;-68
2021/06/26 08:31:53;;;;;;;12.20;11.00;;;;;;;25.12;46.20;96894.25;5036856;28;20453;-68
2021/06/26 08:34:18;;;;;;;12.30;11.13;;;;;;;24.63;47.50;96893.19;5051033;28;20430;-67
2021/06/26 08:36:44;;;;;;;12.00;10.67;;;;;;;23.87;49.76;96886.59;5051874;28;20932;-68
2021/06/26 08:39:10;;;;;;;13.43;11.50;;;;;;;25.40;46.43;96885.09;5051051;28;20198;-68
2021/06/26 08:41:43;;;;;;;13.50;9.93;;;;;;;25.99;44.35;96883.41;5051364;28;20274;-68
2021/06/26 08:44:11;;;;;;;11.47;10.33;;;;;;;26.00;44.17;96887.72;5048421;28;20203;-68
2021/06/26 08:46:45;;;;;;;12.70;9.43;;;;;;;26.37;43.12;96888.72;5044239;28;20453;-68
2021/06/26 08:49:11;;;;;;;12.20;10.53;;;;;;;26.18;43.35;96889.19;5049981;28;20450;-68
2021/06/26 08:51:37;;;;;;;10.93;9.93;;;;;;;26.42;43.59;96883.38;5052931;28;20437;-69
2021/06/26 08:54:03;;;;;;;13.73;11.00;;;;;;;26.21;42.56;96888.63;5056799;28;20420;-67
2021/06/26 08:56:29;;;;;;;11.60;10.40;;;;;;;26.45;42.86;96887.41;5056924;28;20924;-68
2021/06/26 08:58:55;;;;;;;11.07;10.00;;;;;;;26.34;42.79;96881.16;5052379;28;20421;-66
2021/06/26 09:01:20;;;;;;;11.80;10.70;;;;;;;26.76;41.69;96877.56;5037662;28;20632;-67
2021/06/26 09:03:46;;;;;;;12.40;10.40;;;;;;;26.57;42.20;96879.91;5054759;28;20634;-68
2021/06/26 09:06:12;;;;;;;12.00;10.60;;;;;;;26.10;43.10;96886.97;5057082;28;20266;-67
2021/06/26 09:08:47;;;;;;;12.10;8.67;;;;;;;26.22;41.89;96889.47;5055762;28;20176;-68
2021/06/26 09:11:22;;;;;;;9.27;8.40;;;;;;;26.73;41.29;96879.97;5057776;28;20175;-68
2021/06/26 09:13:48;;;;;;;11.20;10.20;;;;;;;26.86;40.73;96876.00;5055917;28;20469;-69
2021/06/26 09:16:16;;;;;;;10.33;9.23;;;;;;;26.79;41.71;96882.44;5053475;28;20529;-67
2021/06/26 09:18:51;;;;;;;14.60;10.60;;;;;;;26.75;42.04;96875.94;5035893;28;20247;-71
2021/06/26 09:21:33;;;;;;;9.67;8.77;;;;;;;27.00;40.99;96879.78;5049922;28;20534;-66
2021/06/26 09:24:09;;;;;;;10.73;8.00;;;;;;;26.86;40.45;96878.69;5052280;28;20514;-70
2021/06/26 09:26:59;;;;;;;9.50;8.70;;;;;;;27.24;39.59;96873.88;5043240;28;20514;-69
2021/06/26 09:29:25;;;;;;;9.23;8.37;;;;;;;27.38;38.84;96869.59;5051589;28;20489;-67
2021/06/26 09:32:15;;;;;;;9.23;8.33;;;;;;;27.47;39.01;96877.16;5018601;28;20456;-67
2021/06/26 09:34:43;;;;;;;9.90;7.80;;;;;;;26.90;40.42;96871.72;5034359;28;20795;-68
2021/06/26 09:37:10;;;;;;;9.10;8.30;;;;;;;26.18;41.30;96872.25;5055270;28;20426;-67
2021/06/26 09:39:38;;;;;;;8.60;7.80;;;;;;;26.17;41.19;96874.13;5056086;28;20430;-67
2021/06/26 09:42:18;;;;;;;9.50;8.40;;;;;;;27.31;38.83;96865.56;5038515;28;20494;-67
2021/06/26 09:44:56;;;;;;;10.37;7.93;;;;;;;27.74;37.48;96869.59;5049317;28;20818;-68
2021/06/26 09:47:33;;;;;;;8.47;7.67;;;;;;;27.82;38.15;96852.09;5057041;28;20414;-66
2021/06/26 09:50:07;;;;;;;7.60;7.00;;;;;;;27.83;37.57;96858.28;5055452;28;20424;-69
2021/06/26 09:52:43;;;;;;;10.63;8.13;;;;;;;27.25;38.96;96859.38;5054375;28;20456;-68
2021/06/26 09:55:13;;;;;;;8.80;8.00;;;;;;;26.32;40.56;96868.00;5038354;28;20478;-68
2021/06/26 09:57:39;;;;;;;8.07;7.27;;;;;;;26.74;40.38;96863.56;5056640;28;20401;-66
2021/06/26 10:00:06;;;;;;;8.40;7.70;;;;;;;26.36;41.35;96857.53;5055845;28;20441;-68
2021/06/26 10:02:32;;;;;;;9.53;8.67;;;;;;;26.91;40.46;96854.50;5041684;28;20456;-67
2021/06/26 10:04:59;;;;;;;8.90;8.00;;;;;;;27.44;38.70;96844.34;5038031;28;20417;-67
2021/06/26 10:07:25;;;;;;;8.57;7.77;;;;;;;27.78;38.26;96853.72;5020813;28;20635;-68
2021/06/26 10:09:50;;;;;;;8.00;7.30;;;;;;;27.75;38.01;96844.28;5038429;28;20505;-68
2021/06/26 10:12:16;;;;;;;9.90;6.63;;;;;;;27.24;38.15;96841.63;5033699;28;20210;-68
2021/06/26 10:14:42;;;;;;;8.17;7.43;;;;;;;27.12;39.53;96842.69;5052817;28;20179;-67
2021/06/26 10:17:08;;;;;;;8.20;7.40;;;;;;;27.48;38.25;96838.41;5053398;28;20742;-66
2021/06/26 10:19:36;;;;;;;6.90;6.40;;;;;;;27.54;38.60;96842.72;5054675;28;20186;-68
2021/06/26 10:22:02;;;;;;;9.33;6.87;;;;;;;27.29;38.57;96841.63;5050414;28;20441;-69
2021/06/26 10:24:28;;;;;;;7.17;6.57;;;;;;;27.49;37.39;96838.16;5054183;28;20512;-67
2021/06/26 10:26:53;;;;;;;8.07;7.27;;;;;;;27.46;37.84;96845.97;5037428;28;20218;-68
2021/06/26 10:29:30;;;;;;;6.90;6.30;;;;;;;27.26;37.94;96834.09;5036670;28;20190;-67
2021/06/26 10:31:55;;;;;;;9.50;6.50;;;;;;;27.34;38.73;96844.31;5023279;28;20219;-67
2021/06/26 10:34:25;;;;;;;11.10;7.30;;;;;;;27.22;37.67;96830.34;5046712;28;20774;-67
2021/06/26 10:36:53;;;;;;;6.83;6.30;;;;;;;27.07;38.31;96839.19;5028816;28;20191;-67
2021/06/26 10:39:20;;;;;;;6.80;6.20;;;;;;;27.33;38.42;96837.34;5054306;28;20885;-68
2021/06/26 10:42:19;;;;;;;8.30;7.20;;;;;;;26.97;39.06;96838.13;5036600;28;20791;-68
2021/06/26 10:44:53;;;;;;;8.67;6.33;;;;;;;27.27;37.79;96825.78;5049186;28;20478;-67
2021/06/26 10:47:31;;;;;;;6.10;5.60;;;;;;;27.61;36.96;96831.66;5037553;28;20509;-68
2021/06/26 10:50:14;;;;;;;6.30;5.70;;;;;;;28.53;35.59;96825.19;5071196;28;20488;-67
2021/06/26 10:52:59;;;;;;;6.80;6.20;;;;;;;29.35;33.08;96831.16;5059752;28;20551;-68
2021/06/26 10:55:29;;;;;;;5.97;5.37;;;;;;;29.36;33.24;96830.06;5055629;28;20445;-67
2021/06/26 10:57:56;;;;;;;9.60;7.47;;;;;;;27.50;37.71;96826.31;5055758;28;20456;-66
2021/06/26 11:00:40;;;;;;;8.93;7.83;;;;;;;26.73;39.96;96828.91;5050693;28;20426;-68
2021/06/26 11:03:18;;;;;;;7.60;6.90;;;;;;;28.26;36.96;96820.19;5065203;28;20977;-68
2021/06/26 11:05:43;;;;;;;7.23;6.53;;;;;;;28.35;37.17;96816.63;5044644;28;20439;-67
2021/06/26 11:08:20;;;;;;;6.83;6.27;;;;;;;27.74;37.95;96821.13;5071950;28;20432;-68
2021/06/26 11:10:56;;;;;;;9.27;6.03;;;;;;;27.96;37.19;96827.28;5060243;28;20184;-67
2021/06/26 11:13:23;;;;;;;6.70;6.10;;;;;;;28.09;36.43;96828.63;5075498;28;21016;-67
2021/06/26 11:15:50;;;;;;;7.47;6.47;;;;;;;28.50;35.79;96820.34;5060442;28;20540;-68
2021/06/26 11:18:17;;;;;;;6.53;5.80;;;;;;;29.09;34.26;96821.31;5024717;28;20442;-69
2021/06/26 11:20:43;;;;;;;6.70;5.57;;;;;;;29.59;33.59;96828.47;5055838;28;20426;-68
2021/06/26 11:23:14;;;;;;;6.47;5.87;;;;;;;28.41;35.67;96819.31;5036392;28;20461;-68